Weather at Hospital General De Manresa Heliport

Public forecast

Using degrees Celsius for public forecast. Weather courtesy of forecast.io.

Closest aviation weather report (METAR) to Hospital General De Manresa Heliport

Closest report is Sabadell Airport, 16.8 nm (31.2 km) SE. Retrieved 2020/09/26 07:30 UTC (1 hour ago):

LELL 260730Z 24006KT 200V290 9999 FEW060 13/07 Q1014

Closest aviation forecast (TAF) to Hospital General De Manresa Heliport

Closest forecast is Sabadell Airport, 16.8 nm (31.2 km) SE. Retrieved 2020/09/26 09:28 UTC (0 seconds ago):

TAF LELL 260800Z 2609/2709 VRB03KT 9999 FEW020 TX25/2613Z TN10/2706Z TEMPO 2612/2616 13010KT TEMPO 2617/2622 27010KT PROB30 TEMPO 2618/2621 RA